Impacts TAF Board
For situational awareness. Not to be used for flight planning purposes.
IDs:

KPHL - Philadelphia Intl, PA, US

Issued at 1725 UTC 12 Dec 2018
Updated at 2001 UTC 12 Dec 2018
Potential Impact None Slight Moderate High
Time1954Z 12/20Z 12/21Z 12/22Z 12/23Z 13/00Z 13/01Z 13/02Z 13/03Z 13/04Z 13/05Z 13/06Z 13/07Z 13/08Z>>
Type OBS PRVL PRVL PRVL PRVL PRVL PRVL PRVL PRVL PRVL PRVL PRVL PRVL PRVL
VIS 10 >6 >6 >6 >6 >6 >6 >6 >6 >6 >6 >6 >6 >6
CIG 270 -- -- -- 200 200 200 200 200 200 200 200 200 200
Cover BKN SCT SCT SCT BKN BKN BKN BKN BKN BKN BKN BKN BKN BKN
FltCat VFR VFR VFR VFR VFR VFR VFR VFR VFR VFR VFR VFR VFR VFR
WX -- -- -- -- -- -- -- -- -- -- -- -- -- --
WDir 310 280 280 280 230 230 230 230 230 230 230 230 230 230
WSpd 4 5 5 5 4 4 4 4 4 4 4 4 4 4
WGst -- -- -- -- -- -- -- -- -- -- -- -- -- --
Raw TAF
KPHL 121725Z 1218/1324 28005KT P6SM SCT040
  FM122300 23004KT P6SM BKN200
  FM131000 10005KT P6SM BKN080
  FM131800 08005KT P6SM OVC040


Raw METAR
KPHL 121954Z 31004KT 10SM FEW045 SCT220 BKN270 06/M06 A3015 RMK AO2 SLP210 T00561061 $
KPHL 121854Z 29007KT 10SM FEW046 SCT230 BKN270 06/M06 A3015 RMK AO2 SLP209 T00611061 $
KPHL 121754Z 33005KT 10SM FEW044 BKN270 06/M06 A3016 RMK AO2 SLP211 T00561061 10056 21006 58012
KPHL 121654Z VRB04KT 10SM SCT270 05/M06 A3017 RMK AO2 SLP217 T00501056

METAR Board
Radar Display
Forecast Discussion
For situational awareness. Not to be used for flight planning purposes.